createdAt,value
2022-09-25T00:02:06.137Z,7.74
2022-09-25T00:04:35.274Z,7.73
2022-09-25T00:07:04.336Z,7.54
2022-09-25T00:09:33.548Z,7.65
2022-09-25T00:12:02.697Z,7.67
2022-09-25T00:14:42.961Z,7.75
2022-09-25T00:17:14.321Z,7.74
2022-09-25T00:19:59.082Z,7.74
2022-09-25T00:22:29.772Z,7.68
2022-09-25T00:25:04.022Z,7.74
2022-09-25T00:27:33.094Z,7.69
2022-09-25T00:30:03.190Z,7.67
2022-09-25T00:32:35.157Z,7.74
2022-09-25T00:35:04.292Z,7.92
2022-09-25T00:37:35.499Z,7.94
2022-09-25T00:40:06.221Z,7.80
2022-09-25T00:42:36.040Z,7.93
2022-09-25T00:45:08.226Z,7.91
2022-09-25T00:47:51.338Z,7.91
2022-09-25T00:50:28.517Z,7.79
2022-09-25T00:53:03.533Z,7.78
2022-09-25T00:55:34.864Z,7.78
2022-09-25T01:00:40.531Z,7.81
2022-09-25T01:03:11.623Z,7.76
2022-09-25T01:05:47.485Z,7.81
2022-09-25T01:08:19.990Z,7.73
2022-09-25T01:10:49.127Z,7.68
2022-09-25T01:13:20.847Z,7.59
2022-09-25T01:15:57.185Z,7.76
2022-09-25T01:18:41.498Z,7.71
2022-09-25T01:21:38.593Z,7.70
2022-09-25T01:24:35.845Z,7.64
2022-09-25T01:27:28.738Z,7.63
2022-09-25T01:30:07.479Z,7.57
2022-09-25T01:32:46.054Z,7.56
2022-09-25T01:35:21.705Z,7.58
2022-09-25T01:37:59.527Z,7.59
2022-09-25T01:40:34.097Z,7.52
2022-09-25T01:43:09.673Z,7.51
2022-09-25T01:45:46.343Z,7.46
2022-09-25T01:48:20.501Z,7.42
2022-09-25T01:50:55.155Z,7.38
2022-09-25T01:53:28.346Z,7.33
2022-09-25T01:56:08.374Z,7.34
2022-09-25T01:58:43.266Z,7.31
2022-09-25T02:01:27.565Z,7.32
2022-09-25T02:04:00.533Z,7.31
2022-09-25T02:06:30.346Z,7.25
2022-09-25T02:09:05.346Z,7.24
2022-09-25T02:11:44.397Z,7.24
2022-09-25T02:17:00.945Z,7.24
2022-09-25T02:19:43.276Z,7.23
2022-09-25T02:22:20.121Z,7.25
2022-09-25T02:25:01.228Z,7.22
2022-09-25T02:27:30.956Z,7.17
2022-09-25T02:30:00.369Z,7.15
2022-09-25T02:32:41.437Z,7.17
2022-09-25T02:35:11.383Z,7.12
2022-09-25T02:37:40.477Z,7.14
2022-09-25T02:40:11.925Z,7.18
2022-09-25T02:42:51.130Z,7.19
2022-09-25T02:48:18.082Z,7.15
2022-09-25T02:51:02.103Z,7.11
2022-09-25T02:53:38.704Z,6.99
2022-09-25T02:56:14.846Z,7.04
2022-09-25T02:58:48.536Z,7.01
2022-09-25T03:01:25.157Z,6.91
2022-09-25T03:03:59.506Z,6.88
2022-09-25T03:06:29.779Z,6.84
2022-09-25T03:09:01.134Z,6.75
2022-09-25T03:11:34.376Z,6.77
2022-09-25T03:14:05.411Z,6.76
2022-09-25T03:16:40.167Z,6.72
2022-09-25T03:19:11.465Z,6.64
2022-09-25T03:24:20.538Z,6.47
2022-09-25T03:26:49.857Z,6.65
2022-09-25T03:29:19.422Z,6.61
2022-09-25T03:31:48.658Z,6.65
2022-09-25T03:34:21.224Z,6.68
2022-09-25T03:36:55.450Z,6.61
2022-09-25T03:39:24.686Z,6.61
2022-09-25T03:41:53.820Z,6.62
2022-09-25T03:44:36.274Z,6.66
2022-09-25T03:47:05.449Z,6.73
2022-09-25T03:52:16.287Z,6.89
2022-09-25T03:54:45.510Z,6.77
2022-09-25T03:57:14.926Z,6.75
2022-09-25T03:59:44.292Z,6.73
2022-09-25T04:02:13.498Z,6.74
2022-09-25T04:04:45.386Z,6.73
2022-09-25T04:07:16.205Z,6.69
2022-09-25T04:09:45.256Z,6.58
2022-09-25T04:12:20.139Z,6.86
2022-09-25T04:14:49.278Z,6.88
2022-09-25T04:17:18.464Z,6.93
2022-09-25T04:19:54.530Z,6.84
2022-09-25T04:22:23.682Z,6.77
2022-09-25T04:24:54.409Z,6.77
2022-09-25T04:27:26.134Z,6.84
2022-09-25T04:29:55.236Z,6.84
2022-09-25T04:32:42.200Z,6.85
2022-09-25T04:35:13.415Z,6.88
2022-09-25T04:37:43.773Z,6.90
2022-09-25T04:40:18.433Z,6.98
2022-09-25T04:42:47.522Z,7.02
2022-09-25T04:45:22.033Z,7.08
2022-09-25T04:47:51.335Z,7.12
2022-09-25T04:53:04.963Z,7.24
2022-09-25T04:55:34.087Z,7.26
2022-09-25T04:58:03.826Z,7.23
2022-09-25T05:00:34.296Z,7.13
2022-09-25T05:03:05.132Z,7.06
2022-09-25T05:05:36.729Z,6.91
2022-09-25T05:08:11.220Z,6.98
2022-09-25T05:10:41.717Z,7.16
2022-09-25T05:13:18.263Z,7.24
2022-09-25T05:15:52.367Z,7.33
2022-09-25T05:18:23.716Z,7.40
2022-09-25T05:20:55.567Z,7.42
2022-09-25T05:23:24.419Z,7.52
2022-09-25T05:25:54.831Z,7.45
2022-09-25T05:28:33.170Z,7.42
2022-09-25T05:31:03.675Z,7.43
2022-09-25T05:33:33.850Z,7.37
2022-09-25T05:36:06.457Z,7.40
2022-09-25T05:38:37.660Z,7.50
2022-09-25T05:41:08.509Z,7.52
2022-09-25T05:46:17.937Z,7.52
2022-09-25T05:48:47.109Z,7.60
2022-09-25T05:51:18.676Z,7.61
2022-09-25T05:53:47.794Z,7.65
2022-09-25T05:56:16.881Z,7.72
2022-09-25T05:58:52.735Z,7.68
2022-09-25T06:01:22.131Z,7.66
2022-09-25T06:03:51.334Z,7.54
2022-09-25T06:06:27.192Z,7.38
2022-09-25T06:09:07.935Z,7.50
2022-09-25T06:11:37.082Z,7.55
2022-09-25T06:14:06.406Z,7.53
2022-09-25T06:16:35.693Z,7.56
2022-09-25T06:19:06.668Z,7.65
2022-09-25T06:21:42.759Z,7.79
2022-09-25T06:24:12.487Z,8.07
2022-09-25T06:26:41.584Z,8.22
2022-09-25T06:29:10.873Z,8.24
2022-09-25T06:31:40.011Z,8.33
2022-09-25T06:34:11.978Z,8.31
2022-09-25T06:36:43.309Z,8.53
2022-09-25T06:39:12.570Z,8.54
2022-09-25T06:41:41.882Z,8.36
2022-09-25T06:44:13.988Z,8.18
2022-09-25T06:46:44.658Z,7.99
2022-09-25T06:49:15.616Z,7.85
2022-09-25T06:51:47.998Z,7.92
2022-09-25T06:54:17.301Z,7.70
2022-09-25T06:56:46.447Z,7.75
2022-09-25T06:59:15.655Z,7.82
2022-09-25T07:01:45.022Z,8.02
2022-09-25T07:04:13.131Z,8.22
2022-09-25T07:06:42.131Z,8.40
2022-09-25T07:09:13.447Z,8.51
2022-09-25T07:11:48.266Z,8.51
2022-09-25T07:14:17.549Z,8.50
2022-09-25T07:16:46.539Z,8.47
2022-09-25T07:19:15.790Z,8.50
2022-09-25T07:21:44.877Z,8.63
2022-09-25T07:24:15.983Z,8.83
2022-09-25T07:26:45.128Z,9.03
2022-09-25T07:29:14.460Z,9.03
2022-09-25T07:31:45.117Z,9.01
2022-09-25T07:34:14.955Z,8.85
2022-09-25T07:36:45.340Z,8.52
2022-09-25T07:39:18.660Z,8.52
2022-09-25T07:41:48.144Z,8.45
2022-09-25T07:44:28.429Z,8.35
2022-09-25T07:47:00.971Z,8.36
2022-09-25T07:49:30.341Z,8.45
2022-09-25T07:52:00.658Z,8.68
2022-09-25T07:54:31.958Z,9.00
2022-09-25T07:57:01.280Z,9.28
2022-09-25T07:59:30.308Z,9.49
2022-09-25T08:02:05.274Z,9.56
2022-09-25T08:04:34.533Z,9.35
2022-09-25T08:07:04.238Z,9.16
2022-09-25T08:09:35.366Z,9.04
2022-09-25T08:12:04.754Z,8.99
2022-09-25T08:14:33.767Z,8.90
2022-09-25T08:17:03.042Z,8.89
2022-09-25T08:19:32.769Z,8.96
2022-09-25T08:22:01.870Z,8.96
2022-09-25T08:24:31.090Z,8.94
2022-09-25T08:27:02.155Z,8.88
2022-09-25T08:32:11.730Z,9.06
2022-09-25T08:34:42.168Z,9.19
2022-09-25T08:37:12.147Z,9.00
2022-09-25T08:39:41.587Z,8.79
2022-09-25T08:42:34.631Z,8.53
2022-09-25T08:45:41.811Z,8.33
2022-09-25T08:48:31.211Z,8.39
2022-09-25T08:51:03.095Z,8.42
2022-09-25T08:53:32.431Z,8.40
2022-09-25T08:56:15.318Z,8.38
2022-09-25T08:58:50.276Z,8.48
2022-09-25T09:01:23.191Z,8.38
2022-09-25T09:03:57.402Z,8.55
2022-09-25T09:06:29.517Z,8.87
2022-09-25T09:09:15.101Z,9.09
2022-09-25T09:11:49.268Z,9.27
2022-09-25T09:14:31.529Z,9.76
2022-09-25T09:17:02.686Z,10.02
2022-09-25T09:19:32.997Z,10.05
2022-09-25T09:22:11.103Z,10.01
2022-09-25T09:25:00.785Z,9.85
2022-09-25T09:27:59.671Z,9.64
2022-09-25T09:30:38.322Z,9.56
2022-09-25T09:33:29.661Z,9.61
2022-09-25T09:36:11.809Z,9.88
2022-09-25T09:38:55.930Z,10.22
2022-09-25T09:41:37.038Z,10.27
2022-09-25T09:44:24.072Z,10.17
2022-09-25T09:47:05.022Z,9.96
2022-09-25T09:49:50.584Z,9.77
2022-09-25T09:52:35.800Z,9.37
2022-09-25T09:55:26.656Z,9.06
2022-09-25T09:57:59.457Z,8.68
2022-09-25T10:00:28.673Z,8.30
2022-09-25T10:03:08.474Z,8.10
2022-09-25T10:05:43.130Z,8.12
2022-09-25T10:08:22.397Z,8.15
2022-09-25T10:10:54.815Z,8.16
2022-09-25T10:13:28.905Z,8.18
2022-09-25T10:16:01.637Z,8.30
2022-09-25T10:18:46.257Z,8.49
2022-09-25T10:21:18.723Z,8.61
2022-09-25T10:23:53.022Z,8.81
2022-09-25T10:26:30.135Z,9.03
2022-09-25T10:31:37.731Z,8.85
2022-09-25T10:34:21.797Z,8.65
2022-09-25T10:36:53.156Z,8.55
2022-09-25T10:39:49.229Z,8.54
2022-09-25T10:42:38.676Z,8.59
2022-09-25T10:45:30.468Z,8.66
2022-09-25T10:48:13.282Z,8.82
2022-09-25T10:50:45.695Z,8.69
2022-09-25T10:53:30.850Z,8.74
2022-09-25T10:56:05.728Z,8.74
2022-09-25T10:58:43.057Z,8.90
2022-09-25T11:01:15.823Z,9.00
2022-09-25T11:03:55.196Z,9.14
2022-09-25T11:06:34.778Z,9.10
2022-09-25T11:09:14.754Z,9.08
2022-09-25T11:11:45.665Z,9.06
2022-09-25T11:14:28.224Z,9.12
2022-09-25T11:16:58.195Z,8.92
2022-09-25T11:19:30.601Z,8.79
2022-09-25T11:22:15.129Z,8.44
2022-09-25T11:24:57.193Z,8.35
2022-09-25T11:27:36.545Z,8.30
2022-09-25T11:30:08.870Z,8.31
2022-09-25T11:32:51.639Z,8.35
2022-09-25T11:35:48.377Z,8.42
2022-09-25T11:38:43.453Z,8.36
2022-09-25T11:41:22.592Z,8.48
2022-09-25T11:44:05.670Z,8.51
2022-09-25T11:46:49.820Z,8.53
2022-09-25T11:49:24.249Z,8.39
2022-09-25T11:52:24.505Z,8.20
2022-09-25T11:58:20.824Z,8.00
2022-09-25T12:01:00.028Z,8.03
2022-09-25T12:03:49.599Z,8.15
2022-09-25T12:06:38.827Z,8.19
2022-09-25T12:09:28.670Z,8.08
2022-09-25T12:12:07.032Z,8.08
2022-09-25T12:14:45.098Z,8.04
2022-09-25T12:17:21.936Z,8.00
2022-09-25T12:19:57.643Z,8.11
2022-09-25T12:22:39.151Z,8.19
2022-09-25T12:25:30.251Z,8.31
2022-09-25T12:28:30.373Z,8.37
2022-09-25T12:31:11.823Z,8.32
2022-09-25T12:33:48.683Z,8.33
2022-09-25T12:36:22.906Z,8.37
2022-09-25T12:39:08.391Z,8.33
2022-09-25T12:41:42.407Z,8.47
2022-09-25T12:44:27.468Z,8.42
2022-09-25T12:47:04.562Z,8.47
2022-09-25T12:56:44.101Z,8.48
2022-09-25T12:59:17.566Z,8.44
2022-09-25T13:01:54.962Z,8.23
2022-09-25T13:04:41.645Z,8.59
2022-09-25T13:07:19.491Z,8.73
2022-09-25T13:09:50.583Z,8.72
2022-09-25T13:12:36.070Z,8.79
2022-09-25T13:15:09.260Z,8.73
2022-09-25T13:17:39.492Z,8.71
2022-09-25T13:20:40.462Z,8.74
2022-09-25T13:23:19.297Z,8.72
2022-09-25T13:25:59.234Z,8.72
2022-09-25T13:28:33.761Z,8.74
2022-09-25T13:31:10.278Z,8.82
2022-09-25T13:33:46.686Z,8.71
2022-09-25T13:36:38.734Z,8.64
2022-09-25T13:39:29.801Z,8.64
2022-09-25T13:42:03.878Z,8.50
2022-09-25T13:45:05.819Z,8.47
2022-09-25T13:47:53.497Z,8.31
2022-09-25T13:50:31.098Z,8.23
2022-09-25T13:53:24.584Z,8.11
2022-09-25T13:56:20.403Z,8.12
2022-09-25T13:59:21.729Z,8.04
2022-09-25T14:01:58.705Z,7.87
2022-09-25T14:04:34.507Z,7.96
2022-09-25T14:07:19.777Z,8.00
2022-09-25T14:09:53.397Z,7.86
2022-09-25T14:15:16.214Z,7.87
2022-09-25T14:17:48.894Z,7.92
2022-09-25T14:20:40.783Z,7.99
2022-09-25T14:23:17.178Z,7.96
2022-09-25T14:25:47.222Z,7.96
2022-09-25T14:28:26.630Z,8.00
2022-09-25T14:31:20.358Z,8.05
2022-09-25T14:34:30.526Z,8.13
2022-09-25T14:37:13.690Z,8.08
2022-09-25T14:39:51.187Z,8.03
2022-09-25T14:42:37.553Z,8.21
2022-09-25T14:45:31.248Z,8.32
2022-09-25T14:48:02.540Z,8.33
2022-09-25T14:50:39.902Z,8.40
2022-09-25T14:53:14.242Z,8.32
2022-09-25T14:55:47.647Z,8.36
2022-09-25T14:58:22.635Z,8.38
2022-09-25T15:00:54.525Z,8.38
2022-09-25T15:03:30.670Z,8.12
2022-09-25T15:06:03.235Z,8.35
2022-09-25T15:08:40.166Z,8.26
2022-09-25T15:11:14.998Z,8.39
2022-09-25T15:13:44.563Z,8.42
2022-09-25T15:16:31.504Z,8.40
2022-09-25T15:19:03.723Z,8.39
2022-09-25T15:21:37.406Z,8.36
2022-09-25T15:24:13.140Z,8.27
2022-09-25T15:26:52.244Z,8.28
2022-09-25T15:29:25.048Z,8.20
2022-09-25T15:31:59.512Z,8.20
2022-09-25T15:34:31.668Z,8.16
2022-09-25T15:37:21.947Z,8.14
2022-09-25T15:39:51.142Z,8.09
2022-09-25T15:42:20.479Z,8.04
2022-09-25T15:44:51.074Z,8.01
2022-09-25T15:47:52.673Z,8.03
2022-09-25T15:50:27.211Z,7.98
2022-09-25T15:53:01.937Z,7.90
2022-09-25T15:55:32.973Z,7.88
2022-09-25T15:58:14.630Z,7.87
2022-09-25T16:01:11.931Z,7.88
2022-09-25T16:04:05.646Z,7.86
2022-09-25T16:06:42.475Z,7.85
2022-09-25T16:09:23.784Z,7.86
2022-09-25T16:11:53.244Z,7.85
2022-09-25T16:14:30.405Z,7.90
2022-09-25T16:17:00.532Z,7.90
2022-09-25T16:19:33.169Z,7.95
2022-09-25T16:22:14.870Z,7.96
2022-09-25T16:24:52.529Z,8.02
2022-09-25T16:27:28.448Z,7.97
2022-09-25T16:30:03.483Z,7.86
2022-09-25T16:32:33.931Z,7.84
2022-09-25T16:35:04.566Z,7.80
2022-09-25T16:37:40.315Z,7.76
2022-09-25T16:40:29.188Z,7.77
2022-09-25T16:43:00.728Z,7.65
2022-09-25T16:45:33.676Z,7.37
2022-09-25T16:48:32.815Z,7.61
2022-09-25T16:51:02.854Z,7.57
2022-09-25T16:53:32.019Z,7.51
2022-09-25T16:56:03.590Z,7.57
2022-09-25T16:58:32.691Z,7.60
2022-09-25T17:01:04.334Z,7.63
2022-09-25T17:03:49.379Z,7.65
2022-09-25T17:06:19.702Z,7.68
2022-09-25T17:08:49.012Z,7.68
2022-09-25T17:11:22.388Z,7.76
2022-09-25T17:13:55.253Z,7.74
2022-09-25T17:16:24.554Z,7.71
2022-09-25T17:18:55.718Z,7.66
2022-09-25T17:21:28.485Z,7.65
2022-09-25T17:23:57.654Z,7.65
2022-09-25T17:26:33.885Z,7.64
2022-09-25T17:29:03.046Z,7.61
2022-09-25T17:31:33.220Z,7.66
2022-09-25T17:34:02.465Z,7.67
2022-09-25T17:36:31.507Z,7.72
2022-09-25T17:39:02.597Z,7.72
2022-09-25T17:41:36.155Z,7.58
2022-09-25T17:44:06.272Z,7.70
2022-09-25T17:46:35.987Z,7.69
2022-09-25T17:49:06.106Z,7.64
2022-09-25T17:51:35.513Z,7.64
2022-09-25T17:54:05.990Z,7.59
2022-09-25T17:56:44.718Z,7.61
2022-09-25T17:59:14.389Z,7.55
2022-09-25T18:01:43.534Z,7.55
2022-09-25T18:07:01.481Z,7.51
2022-09-25T18:09:30.735Z,7.48
2022-09-25T18:12:02.350Z,7.46
2022-09-25T18:14:33.656Z,7.45
2022-09-25T18:17:02.871Z,7.45
2022-09-25T18:19:44.893Z,7.43
2022-09-25T18:22:21.965Z,7.48
2022-09-25T18:24:55.929Z,7.48
2022-09-25T18:27:30.017Z,7.55
2022-09-25T18:29:59.726Z,7.57
2022-09-25T18:32:31.708Z,7.60
2022-09-25T18:35:12.892Z,7.62
2022-09-25T18:37:45.670Z,7.60
2022-09-25T18:40:18.305Z,7.57
2022-09-25T18:42:49.997Z,7.67
2022-09-25T18:45:19.519Z,7.57
2022-09-25T18:47:48.708Z,7.56
2022-09-25T18:50:20.877Z,7.50
2022-09-25T18:52:55.534Z,7.51
2022-09-25T18:55:24.935Z,7.48
2022-09-25T18:57:57.091Z,7.44
2022-09-25T19:00:26.322Z,7.43
2022-09-25T19:02:55.400Z,7.40
2022-09-25T19:05:25.480Z,7.43
2022-09-25T19:07:55.037Z,7.42
2022-09-25T19:10:25.469Z,7.44
2022-09-25T19:12:56.482Z,7.48
2022-09-25T19:15:26.026Z,7.46
2022-09-25T19:17:55.635Z,7.46
2022-09-25T19:20:25.551Z,7.48
2022-09-25T19:22:54.755Z,7.47
2022-09-25T19:25:23.837Z,7.49
2022-09-25T19:27:57.893Z,7.49
2022-09-25T19:30:28.939Z,7.45
2022-09-25T19:32:58.909Z,7.46
2022-09-25T19:35:27.987Z,7.51
2022-09-25T19:37:57.040Z,7.60
2022-09-25T19:40:41.749Z,7.66
2022-09-25T19:43:10.914Z,7.74
2022-09-25T19:45:42.252Z,7.84
2022-09-25T19:48:11.511Z,7.89
2022-09-25T19:50:42.954Z,7.97
2022-09-25T19:53:12.047Z,8.01
2022-09-25T19:55:42.698Z,8.03
2022-09-25T19:58:13.064Z,8.01
2022-09-25T20:00:44.362Z,8.10
2022-09-25T20:03:13.983Z,8.11
2022-09-25T20:05:44.119Z,8.12
2022-09-25T20:08:19.604Z,8.17
2022-09-25T20:10:48.895Z,8.10
2022-09-25T20:13:18.351Z,8.22
2022-09-25T20:15:49.414Z,8.08
2022-09-25T20:18:18.901Z,8.25
2022-09-25T20:20:48.191Z,8.21
2022-09-25T20:23:17.646Z,8.19
2022-09-25T20:25:46.703Z,8.17
2022-09-25T20:28:15.917Z,8.18
2022-09-25T20:30:45.074Z,8.20
2022-09-25T20:33:16.272Z,8.18
2022-09-25T20:35:45.454Z,8.15
2022-09-25T20:38:14.399Z,8.17
2022-09-25T20:40:43.583Z,8.16
2022-09-25T20:43:12.700Z,8.16
2022-09-25T20:45:41.922Z,8.16
2022-09-25T20:48:10.944Z,8.17
2022-09-25T20:50:51.151Z,8.23
2022-09-25T20:53:20.343Z,8.20
2022-09-25T20:55:49.504Z,8.22
2022-09-25T20:58:18.790Z,8.20
2022-09-25T21:00:48.625Z,8.18
2022-09-25T21:03:17.762Z,8.16
2022-09-25T21:05:48.759Z,8.13
2022-09-25T21:08:18.015Z,8.08
2022-09-25T21:10:47.172Z,8.03
2022-09-25T21:13:16.438Z,7.98
2022-09-25T21:15:45.564Z,7.91
2022-09-25T21:18:14.695Z,7.91
2022-09-25T21:20:44.027Z,7.89
2022-09-25T21:23:15.182Z,7.92
2022-09-25T21:25:50.022Z,7.92
2022-09-25T21:28:21.221Z,7.89
2022-09-25T21:30:50.363Z,7.89
2022-09-25T21:33:19.740Z,7.88
2022-09-25T21:35:49.180Z,7.87
2022-09-25T21:38:20.409Z,7.86
2022-09-25T21:40:59.444Z,7.76
2022-09-25T21:43:30.842Z,7.80
2022-09-25T21:46:01.694Z,7.78
2022-09-25T21:48:34.504Z,7.76
2022-09-25T21:51:04.746Z,7.76
2022-09-25T21:53:42.352Z,7.74
2022-09-25T21:56:14.490Z,7.70
2022-09-25T21:58:48.931Z,7.68
2022-09-25T22:01:20.324Z,7.66
2022-09-25T22:03:51.251Z,7.64
2022-09-25T22:06:24.651Z,7.63
2022-09-25T22:09:03.048Z,7.62
2022-09-25T22:11:32.446Z,7.62
2022-09-25T22:14:02.107Z,7.56
2022-09-25T22:16:38.175Z,7.52
2022-09-25T22:19:10.227Z,7.61
2022-09-25T22:21:40.215Z,7.62
2022-09-25T22:24:12.014Z,7.59
2022-09-25T22:26:42.527Z,7.74
2022-09-25T22:29:12.272Z,7.59
2022-09-25T22:31:42.783Z,7.59
2022-09-25T22:34:21.164Z,7.58
2022-09-25T22:36:56.413Z,7.59
2022-09-25T22:39:31.063Z,7.58
2022-09-25T22:42:00.866Z,7.59
2022-09-25T22:44:30.926Z,7.56
2022-09-25T22:47:03.891Z,7.51
2022-09-25T22:49:33.280Z,7.49
2022-09-25T22:54:39.186Z,7.49
2022-09-25T22:57:08.439Z,7.50
2022-09-25T23:02:12.358Z,7.52
2022-09-25T23:04:41.316Z,7.56
2022-09-25T23:07:17.283Z,7.58
2022-09-25T23:09:48.336Z,7.58
2022-09-25T23:14:57.274Z,7.52
2022-09-25T23:20:02.648Z,7.46
2022-09-25T23:22:32.366Z,7.47
2022-09-25T23:25:08.498Z,7.43
2022-09-25T23:27:42.647Z,7.40
2022-09-25T23:30:17.555Z,7.31
2022-09-25T23:32:46.806Z,7.30
2022-09-25T23:35:15.907Z,7.29
2022-09-25T23:37:51.085Z,7.26
2022-09-25T23:40:22.171Z,7.29
2022-09-25T23:42:51.499Z,7.30
2022-09-25T23:45:20.521Z,7.34
2022-09-25T23:47:51.390Z,7.26
2022-09-25T23:50:20.702Z,7.41
2022-09-25T23:52:49.796Z,7.41
2022-09-25T23:55:19.106Z,7.43
2022-09-25T23:57:50.142Z,7.46
